Time;durP1;ratioP1;P1;durP2;ratioP2;P2;SDS_P1;SDS_P2;PMS_P1;PMS_P2;Temp;Humidity;BMP_temperature;BMP_pressure;BME280_temperature;BME280_humidity;BME280_pressure;Samples;Min_cycle;Max_cycle;Signal;HPM_P1;HPM_P2
2022/03/19 00:00:51;;;;;;;4.55;1.75;;;;;;;;;;5072123;28;20045;-78
2022/03/19 00:03:20;;;;;;;5.70;1.25;;;;;;;;;;5090575;27;20079;-78
2022/03/19 00:05:46;;;;;;;3.00;1.08;;;;;;;;;;5093339;27;20036;-79
2022/03/19 00:08:12;;;;;;;2.05;1.23;;;;;;;;;;5090152;27;20044;-79
2022/03/19 00:10:51;;;;;;;3.60;1.80;;;;;;;;;;5079661;28;20040;-77
2022/03/19 00:13:31;;;;;;;2.17;1.55;;;;;;;;;;5073770;27;20051;-77
2022/03/19 00:16:01;;;;;;;3.08;1.88;;;;;;;;;;5085421;27;20032;-77
2022/03/19 00:18:28;;;;;;;2.40;1.08;;;;;;;;;;5093281;27;20056;-78
2022/03/19 00:21:02;;;;;;;3.60;1.20;;;;;;;;;;5073088;27;20048;-78
2022/03/19 00:23:34;;;;;;;2.40;1.52;;;;;;;;;;5077027;28;20036;-77
2022/03/19 00:26:20;;;;;;;2.70;1.27;;;;;;;;;;5075522;28;20048;-78
2022/03/19 00:28:47;;;;;;;2.22;1.38;;;;;;;;;;5074211;28;20055;-78
2022/03/19 00:31:18;;;;;;;2.53;1.48;;;;;;;;;;5094871;27;20501;-77
2022/03/19 00:33:50;;;;;;;1.55;1.00;;;;;;;;;;5090887;27;20304;-77
2022/03/19 00:36:22;;;;;;;3.13;1.20;;;;;;;;;;5075495;27;20059;-78
2022/03/19 00:38:51;;;;;;;2.13;1.15;;;;;;;;;;5079373;27;20044;-77
2022/03/19 00:41:33;;;;;;;;;;;;;;;;;;;;;
2022/03/19 00:43:59;;;;;;;;;;;;;;;;;;5092382;27;42331;-78
2022/03/19 00:46:25;;;;;;;3.22;1.30;;;;;;;;;;5074012;27;20013;-77
2022/03/19 00:48:51;;;;;;;2.45;1.02;;;;;;;;;;5084755;27;20556;-77
2022/03/19 00:51:17;;;;;;;2.25;1.25;;;;;;;;;;5100986;27;20036;-77
2022/03/19 00:53:43;;;;;;;2.00;1.02;;;;;;;;;;5083018;27;20038;-77
2022/03/19 00:56:12;;;;;;;4.57;1.50;;;;;;;;;;5088457;27;20036;-77
2022/03/19 00:58:38;;;;;;;5.80;1.17;;;;;;;;;;5094726;27;20763;-79
2022/03/19 01:01:04;;;;;;;2.85;1.48;;;;;;;;;;5082214;27;20052;-76
2022/03/19 01:03:30;;;;;;;2.55;1.40;;;;;;;;;;5090587;27;20051;-77
2022/03/19 01:05:57;;;;;;;2.63;1.80;;;;;;;;;;5078348;28;20139;-77
2022/03/19 01:08:29;;;;;;;3.40;1.02;;;;;;;;;;5095187;27;20072;-77
2022/03/19 01:10:56;;;;;;;3.00;1.38;;;;;;;;;;5077334;28;20104;-78
2022/03/19 01:13:22;;;;;;;1.55;1.35;;;;;;;;;;5072979;27;20045;-78
2022/03/19 01:15:48;;;;;;;2.65;1.38;;;;;;;;;;5089176;27;20087;-77
2022/03/19 01:18:14;;;;;;;2.05;1.27;;;;;;;;;;5077087;27;20055;-77
2022/03/19 01:20:43;;;;;;;2.67;1.88;;;;;;;;;;5091761;27;20441;-77
2022/03/19 01:23:12;;;;;;;3.67;1.75;;;;;;;;;;5088867;27;20041;-78
2022/03/19 01:25:39;;;;;;;1.98;1.13;;;;;;;;;;5091159;27;20065;-77
2022/03/19 01:28:05;;;;;;;2.45;1.30;;;;;;;;;;5070679;27;20048;-78
2022/03/19 01:30:31;;;;;;;1.92;1.20;;;;;;;;;;5074166;27;20037;-77
2022/03/19 01:32:57;;;;;;;3.40;2.03;;;;;;;;;;5077036;27;20051;-77
2022/03/19 01:35:23;;;;;;;6.18;1.65;;;;;;;;;;5096260;27;20048;-77
2022/03/19 01:37:50;;;;;;;1.90;1.30;;;;;;;;;;5091795;27;20044;-78
2022/03/19 01:40:19;;;;;;;6.60;2.40;;;;;;;;;;5088991;27;20048;-78
2022/03/19 01:42:46;;;;;;;5.63;2.10;;;;;;;;;;5088230;27;20040;-78
2022/03/19 01:45:17;;;;;;;5.15;1.40;;;;;;;;;;5090026;27;20612;-78
2022/03/19 01:47:44;;;;;;;3.45;1.95;;;;;;;;;;5072027;27;20081;-78
2022/03/19 01:50:11;;;;;;;4.63;2.03;;;;;;;;;;5071114;27;20040;-78
2022/03/19 01:52:37;;;;;;;2.00;1.15;;;;;;;;;;5096159;27;20518;-78
2022/03/19 01:55:06;;;;;;;3.83;1.90;;;;;;;;;;5075629;28;20069;-78
2022/03/19 01:57:34;;;;;;;4.28;2.10;;;;;;;;;;5075514;28;20071;-78
2022/03/19 02:00:03;;;;;;;4.03;1.85;;;;;;;;;;5076539;27;20044;-78
2022/03/19 02:02:30;;;;;;;3.20;1.90;;;;;;;;;;5076023;28;20045;-79
2022/03/19 02:04:58;;;;;;;3.92;1.67;;;;;;;;;;5095650;27;20358;-77
2022/03/19 02:07:24;;;;;;;4.10;1.50;;;;;;;;;;5087944;27;20097;-79
2022/03/19 02:09:50;;;;;;;6.20;2.22;;;;;;;;;;5065907;28;20159;-78
2022/03/19 02:12:16;;;;;;;5.47;2.25;;;;;;;;;;5092179;27;20478;-78
2022/03/19 02:14:44;;;;;;;2.78;2.15;;;;;;;;;;5095672;27;20101;-78
2022/03/19 02:17:10;;;;;;;4.85;2.05;;;;;;;;;;5074649;28;20040;-77
2022/03/19 02:19:48;;;;;;;3.90;1.65;;;;;;;;;;5071206;28;20059;-78
2022/03/19 02:22:26;;;;;;;5.35;3.58;;;;;;;;;;5077596;27;20048;-78
2022/03/19 02:27:37;;;;;;;2.80;1.60;;;;;;;;;;5091033;27;20457;-78
2022/03/19 02:30:04;;;;;;;4.15;2.10;;;;;;;;;;5078013;28;20055;-78
2022/03/19 02:32:31;;;;;;;4.78;2.40;;;;;;;;;;5088015;27;20963;-78
2022/03/19 02:34:57;;;;;;;5.57;2.40;;;;;;;;;;5073980;28;20040;-78
2022/03/19 02:37:23;;;;;;;3.95;1.95;;;;;;;;;;5074346;27;20087;-78
2022/03/19 02:39:49;;;;;;;5.18;2.90;;;;;;;;;;5074026;27;20063;-78
2022/03/19 02:42:17;;;;;;;6.88;3.00;;;;;;;;;;5098625;27;20051;-78
2022/03/19 02:44:44;;;;;;;4.38;2.28;;;;;;;;;;5095178;27;20051;-78
2022/03/19 02:47:10;;;;;;;4.78;2.33;;;;;;;;;;5089573;27;20177;-79
2022/03/19 02:49:36;;;;;;;3.75;2.10;;;;;;;;;;5091578;27;20070;-78
2022/03/19 02:52:03;;;;;;;3.58;2.30;;;;;;;;;;5091319;27;20036;-77
2022/03/19 02:54:30;;;;;;;3.45;2.08;;;;;;;;;;5087693;27;20095;-77
2022/03/19 02:56:57;;;;;;;7.80;2.80;;;;;;;;;;5076748;27;20037;-78
2022/03/19 02:59:27;;;;;;;5.35;3.05;;;;;;;;;;5072648;28;20153;-77
2022/03/19 03:01:54;;;;;;;6.70;2.53;;;;;;;;;;5093211;27;20051;-78
2022/03/19 03:04:20;;;;;;;3.65;2.58;;;;;;;;;;5070878;27;20051;-78
2022/03/19 03:06:48;;;;;;;6.00;2.95;;;;;;;;;;5076370;27;20839;-78
2022/03/19 03:09:15;;;;;;;10.63;5.68;;;;;;;;;;5087180;27;20040;-78
2022/03/19 03:11:41;;;;;;;6.50;2.42;;;;;;;;;;5072519;27;20055;-78
2022/03/19 03:14:10;;;;;;;6.43;3.05;;;;;;;;;;5087474;27;20119;-78
2022/03/19 03:16:37;;;;;;;7.97;3.25;;;;;;;;;;5087620;27;20062;-78
2022/03/19 03:19:07;;;;;;;8.52;3.42;;;;;;;;;;5092699;27;20570;-77
2022/03/19 03:21:34;;;;;;;9.13;3.40;;;;;;;;;;5094211;27;20051;-78
2022/03/19 03:24:01;;;;;;;4.50;3.03;;;;;;;;;;5092670;27;20159;-78
2022/03/19 03:26:27;;;;;;;6.07;2.70;;;;;;;;;;5076788;27;20044;-79
2022/03/19 03:28:53;;;;;;;5.32;2.58;;;;;;;;;;5093678;27;20127;-78
2022/03/19 03:31:19;;;;;;;5.35;3.30;;;;;;;;;;5093029;27;20082;-79
2022/03/19 03:33:45;;;;;;;8.70;2.42;;;;;;;;;;5075727;27;20565;-78
2022/03/19 03:36:12;;;;;;;7.00;2.67;;;;;;;;;;5090283;27;20083;-78
2022/03/19 03:38:38;;;;;;;5.38;2.85;;;;;;;;;;5093104;27;20525;-78
2022/03/19 03:41:04;;;;;;;7.03;3.28;;;;;;;;;;5092591;27;20048;-78
2022/03/19 03:43:30;;;;;;;6.00;3.22;;;;;;;;;;5091985;27;20040;-78
2022/03/19 03:45:56;;;;;;;8.02;3.20;;;;;;;;;;5093101;27;20040;-78
2022/03/19 03:48:22;;;;;;;7.38;3.25;;;;;;;;;;5073177;28;20048;-78
2022/03/19 03:50:50;;;;;;;7.15;3.22;;;;;;;;;;5080529;28;20560;-79
2022/03/19 03:53:16;;;;;;;6.53;3.42;;;;;;;;;;5076365;28;20044;-78
2022/03/19 03:55:43;;;;;;;7.95;2.95;;;;;;;;;;5095854;27;20508;-78
2022/03/19 03:58:09;;;;;;;8.68;3.97;;;;;;;;;;5093057;27;20047;-78
2022/03/19 04:00:35;;;;;;;6.55;3.50;;;;;;;;;;5093102;27;20654;-79
2022/03/19 04:03:03;;;;;;;10.63;4.05;;;;;;;;;;5094797;27;20032;-78
2022/03/19 04:05:29;;;;;;;12.05;5.03;;;;;;;;;;5079053;28;20537;-78
2022/03/19 04:08:01;;;;;;;7.90;4.13;;;;;;;;;;5075589;28;20059;-78
2022/03/19 04:10:28;;;;;;;7.10;3.60;;;;;;;;;;5075868;28;20048;-78
2022/03/19 04:12:54;;;;;;;8.68;3.38;;;;;;;;;;5079613;28;20032;-78
2022/03/19 04:15:23;;;;;;;7.25;3.47;;;;;;;;;;5105407;27;20047;-78
2022/03/19 04:17:49;;;;;;;9.75;4.40;;;;;;;;;;5104890;27;20040;-79
2022/03/19 04:20:15;;;;;;;7.57;4.65;;;;;;;;;;5094734;28;20044;-79
2022/03/19 04:22:43;;;;;;;11.52;3.40;;;;;;;;;;5090314;28;20111;-79
2022/03/19 04:25:14;;;;;;;13.25;4.88;;;;;;;;;;5091129;27;20063;-79
2022/03/19 04:27:41;;;;;;;4.90;2.58;;;;;;;;;;5073422;28;20059;-80
2022/03/19 04:30:08;;;;;;;12.23;4.15;;;;;;;;;;5070187;28;20147;-79
2022/03/19 04:32:42;;;;;;;7.82;3.60;;;;;;;;;;5072154;28;20036;-79
2022/03/19 04:37:55;;;;;;;8.50;4.47;;;;;;;;;;5097068;27;20048;-79
2022/03/19 04:40:22;;;;;;;10.30;4.45;;;;;;;;;;5075748;27;20545;-78
2022/03/19 04:42:48;;;;;;;8.18;4.32;;;;;;;;;;5071638;27;20044;-79
2022/03/19 04:45:14;;;;;;;6.90;3.25;;;;;;;;;;5077234;27;20056;-79
2022/03/19 04:47:42;;;;;;;12.50;5.13;;;;;;;;;;5093665;27;20044;-78
2022/03/19 04:50:09;;;;;;;8.63;3.95;;;;;;;;;;5070874;27;20044;-77
2022/03/19 04:52:35;;;;;;;15.93;5.72;;;;;;;;;;5067710;27;20096;-79
2022/03/19 04:55:01;;;;;;;8.05;4.30;;;;;;;;;;5071766;27;20043;-79
2022/03/19 04:57:28;;;;;;;8.32;4.68;;;;;;;;;;5078466;28;20603;-78
2022/03/19 04:59:54;;;;;;;11.75;4.85;;;;;;;;;;5073669;28;20052;-79
2022/03/19 05:02:24;;;;;;;13.32;5.55;;;;;;;;;;5070137;28;20068;-79
2022/03/19 05:04:51;;;;;;;11.25;3.50;;;;;;;;;;5075633;28;20044;-79
2022/03/19 05:07:19;;;;;;;11.25;6.20;;;;;;;;;;5094517;27;20040;-77
2022/03/19 05:12:38;;;;;;;13.65;5.07;;;;;;;;;;5092903;27;20040;-79
2022/03/19 05:15:04;;;;;;;16.50;5.28;;;;;;;;;;5072261;28;20056;-80
2022/03/19 05:17:31;;;;;;;11.93;5.63;;;;;;;;;;5073820;27;20048;-79
2022/03/19 05:19:57;;;;;;;13.32;5.35;;;;;;;;;;5069776;27;20090;-80
2022/03/19 05:22:34;;;;;;;14.52;5.18;;;;;;;;;;5072851;28;20040;-79
2022/03/19 05:25:19;;;;;;;16.38;6.13;;;;;;;;;;5078998;28;20057;-81
2022/03/19 05:28:01;;;;;;;15.70;7.50;;;;;;;;;;5079873;28;20094;-79
2022/03/19 05:30:29;;;;;;;14.20;5.83;;;;;;;;;;5079629;27;20039;-79
2022/03/19 05:36:09;;;;;;;12.90;5.95;;;;;;;;;;5089403;27;20430;-78
2022/03/19 05:38:56;;;;;;;14.57;5.97;;;;;;;;;;5076926;27;20911;-79
2022/03/19 05:41:37;;;;;;;14.05;6.13;;;;;;;;;;5093981;27;20051;-79
2022/03/19 05:44:12;;;;;;;11.60;5.90;;;;;;;;;;5064592;27;20052;-79
2022/03/19 05:46:47;;;;;;;16.73;6.25;;;;;;;;;;5076583;28;20048;-79
2022/03/19 05:52:19;;;;;;;14.20;6.27;;;;;;;;;;5093196;27;20072;-79
2022/03/19 05:55:06;;;;;;;18.48;7.28;;;;;;;;;;5074535;28;20278;-79
2022/03/19 05:57:35;;;;;;;16.02;6.05;;;;;;;;;;5094542;27;20124;-79
2022/03/19 06:00:08;;;;;;;22.70;6.57;;;;;;;;;;5078301;27;20064;-79
2022/03/19 06:02:52;;;;;;;11.93;7.38;;;;;;;;;;5083417;27;20053;-79
2022/03/19 06:05:34;;;;;;;11.13;5.20;;;;;;;;;;5077930;28;20051;-79
2022/03/19 06:14:53;;;;;;;13.45;6.78;;;;;;;;;;5100386;27;20067;-80
2022/03/19 06:17:31;;;;;;;20.30;8.52;;;;;;;;;;5081273;27;20103;-79
2022/03/19 06:26:23;;;;;;;19.20;8.88;;;;;;;;;;5095154;27;20059;-80
2022/03/19 06:29:17;;;;;;;20.70;7.38;;;;;;;;;;5079528;28;20534;-81
2022/03/19 06:32:20;;;;;;;19.42;8.63;;;;;;;;;;5076430;28;20052;-81
2022/03/19 06:35:11;;;;;;;17.92;7.53;;;;;;;;;;5076695;28;20054;-81
2022/03/19 06:38:01;;;;;;;20.50;8.43;;;;;;;;;;5087577;27;20157;-79
2022/03/19 06:40:45;;;;;;;22.20;8.70;;;;;;;;;;5075545;27;20051;-83
2022/03/19 06:43:50;;;;;;;;;;;;;;;;;;;;;
2022/03/19 06:46:43;;;;;;;15.50;7.22;;;;;;;;;;5088523;27;39373;-80
2022/03/19 06:49:15;;;;;;;20.33;8.52;;;;;;;;;;5071518;28;20037;-82
2022/03/19 06:51:44;;;;;;;14.73;7.25;;;;;;;;;;5073546;27;20335;-75
2022/03/19 06:54:10;;;;;;;25.58;9.98;;;;;;;;;;5075240;27;20044;-79
2022/03/19 06:57:15;;;;;;;22.65;10.27;;;;;;;;;;5070691;27;20040;-81
2022/03/19 06:59:44;;;;;;;21.58;9.77;;;;;;;;;;5092958;27;20414;-79
2022/03/19 07:02:38;;;;;;;21.33;8.80;;;;;;;;;;5078142;28;20048;-79
2022/03/19 07:05:34;;;;;;;23.52;9.18;;;;;;;;;;5087116;27;20688;-80
2022/03/19 07:08:08;;;;;;;18.95;9.98;;;;;;;;;;5092819;27;20041;-79
2022/03/19 07:11:13;;;;;;;;;;;;;;;;;;;;;
2022/03/19 07:13:52;;;;;;;19.17;9.05;;;;;;;;;;5088215;27;41906;-78
2022/03/19 07:16:19;;;;;;;21.02;10.23;;;;;;;;;;5074062;28;20135;-78
2022/03/19 07:19:00;;;;;;;24.00;10.88;;;;;;;;;;5069971;28;20123;-78
2022/03/19 07:21:33;;;;;;;23.30;10.73;;;;;;;;;;5075752;27;20048;-78
2022/03/19 07:24:14;;;;;;;23.85;11.38;;;;;;;;;;5091826;27;20036;-78
2022/03/19 07:26:52;;;;;;;22.50;10.37;;;;;;;;;;5092048;27;20125;-78
2022/03/19 07:29:29;;;;;;;21.23;9.32;;;;;;;;;;5072599;28;20349;-78
2022/03/19 07:32:00;;;;;;;25.80;11.50;;;;;;;;;;5072640;28;20074;-77
2022/03/19 07:34:45;;;;;;;27.02;12.27;;;;;;;;;;5070560;27;20083;-79
2022/03/19 07:37:20;;;;;;;20.77;8.43;;;;;;;;;;5074300;27;20096;-79
2022/03/19 07:39:52;;;;;;;26.73;11.15;;;;;;;;;;5078673;28;20565;-79
2022/03/19 07:42:23;;;;;;;18.47;9.60;;;;;;;;;;5079428;27;20052;-78
2022/03/19 07:44:52;;;;;;;30.35;14.30;;;;;;;;;;5093343;27;20591;-78
2022/03/19 07:47:22;;;;;;;25.88;12.88;;;;;;;;;;5076106;28;20048;-79
2022/03/19 07:49:53;;;;;;;31.48;12.18;;;;;;;;;;5101470;27;20092;-79
2022/03/19 07:52:33;;;;;;;27.10;12.83;;;;;;;;;;5075383;28;20214;-78
2022/03/19 07:55:23;;;;;;;28.05;12.93;;;;;;;;;;5078951;27;20316;-80
2022/03/19 07:57:58;;;;;;;31.25;15.00;;;;;;;;;;5064855;28;20958;-78
2022/03/19 08:00:27;;;;;;;30.35;12.90;;;;;;;;;;5078987;27;20593;-79
2022/03/19 08:03:26;;;;;;;;;;;;;;;;;;;;;
2022/03/19 08:06:08;;;;;;;35.92;14.65;;;;;;;;;;5088434;27;44723;-80
2022/03/19 08:08:38;;;;;;;33.42;15.02;;;;;;;;;;5073130;28;20044;-78
2022/03/19 08:11:29;;;;;;;29.35;15.45;;;;;;;;;;5066826;28;20055;-78
2022/03/19 08:17:05;;;;;;;32.88;14.43;;;;;;;;;;5081872;27;20044;-79
2022/03/19 08:19:39;;;;;;;33.10;13.23;;;;;;;;;;5073137;28;20557;-78
2022/03/19 08:22:14;;;;;;;31.25;13.50;;;;;;;;;;5068729;28;20521;-78
2022/03/19 08:24:50;;;;;;;32.55;15.77;;;;;;;;;;5066788;28;20060;-78
2022/03/19 08:27:20;;;;;;;31.42;14.45;;;;;;;;;;5069956;28;20120;-81
2022/03/19 08:29:52;;;;;;;34.35;16.52;;;;;;;;;;5071865;28;20586;-81
2022/03/19 08:32:18;;;;;;;34.70;16.70;;;;;;;;;;5070714;28;20465;-78
2022/03/19 08:34:45;;;;;;;31.83;15.80;;;;;;;;;;5066866;28;20061;-80
2022/03/19 08:37:20;;;;;;;22.33;10.73;;;;;;;;;;5071461;28;20085;-81
2022/03/19 08:40:16;;;;;;;32.30;15.25;;;;;;;;;;5071139;28;20048;-82
2022/03/19 08:42:51;;;;;;;29.60;13.95;;;;;;;;;;5072415;28;20497;-82
2022/03/19 08:45:20;;;;;;;33.72;16.80;;;;;;;;;;5071505;28;20041;-82
2022/03/19 08:47:53;;;;;;;43.38;16.67;;;;;;;;;;5066190;28;20101;-82
2022/03/19 08:50:37;;;;;;;39.00;17.30;;;;;;;;;;5070700;28;20045;-82
2022/03/19 08:53:09;;;;;;;33.00;14.25;;;;;;;;;;5069128;28;20128;-86
2022/03/19 08:55:39;;;;;;;27.23;13.60;;;;;;;;;;5071982;28;20101;-81
2022/03/19 08:58:25;;;;;;;22.83;11.65;;;;;;;;;;5075663;28;20057;-81
2022/03/19 09:01:00;;;;;;;35.58;17.65;;;;;;;;;;5072105;28;20127;-82
2022/03/19 09:03:40;;;;;;;25.95;13.52;;;;;;;;;;5074817;28;20933;-81
2022/03/19 09:06:15;;;;;;;32.78;16.52;;;;;;;;;;5078029;28;20059;-81
2022/03/19 09:08:47;;;;;;;32.92;15.23;;;;;;;;;;5069946;28;20440;-81
2022/03/19 09:11:23;;;;;;;30.00;14.00;;;;;;;;;;5076849;28;20901;-80
2022/03/19 09:13:53;;;;;;;36.20;17.27;;;;;;;;;;5075506;27;20526;-80
2022/03/19 09:16:20;;;;;;;39.42;17.15;;;;;;;;;;5071313;28;20041;-79
2022/03/19 09:18:54;;;;;;;28.67;14.25;;;;;;;;;;5077371;28;20558;-80
2022/03/19 09:21:25;;;;;;;34.65;16.15;;;;;;;;;;5071591;28;20048;-80
2022/03/19 09:23:54;;;;;;;32.97;15.00;;;;;;;;;;5068892;28;20084;-81
2022/03/19 09:26:26;;;;;;;31.90;14.88;;;;;;;;;;5069151;28;20060;-81
2022/03/19 09:29:02;;;;;;;34.35;17.00;;;;;;;;;;5070740;28;20510;-80
2022/03/19 09:31:41;;;;;;;36.22;16.00;;;;;;;;;;5078930;28;20053;-81
2022/03/19 09:34:18;;;;;;;36.20;15.85;;;;;;;;;;5063484;28;20053;-80
2022/03/19 09:37:16;;;;;;;33.28;15.57;;;;;;;;;;5072863;28;20041;-81
2022/03/19 09:40:03;;;;;;;31.55;14.77;;;;;;;;;;5074952;28;21197;-79
2022/03/19 09:42:47;;;;;;;34.83;16.88;;;;;;;;;;5074062;28;20045;-79
2022/03/19 09:45:14;;;;;;;34.72;16.85;;;;;;;;;;5070734;28;20045;-79
2022/03/19 09:47:48;;;;;;;34.70;16.58;;;;;;;;;;5070467;28;20079;-82
2022/03/19 09:50:20;;;;;;;28.00;13.40;;;;;;;;;;5069532;28;20062;-83
2022/03/19 09:53:00;;;;;;;30.67;14.80;;;;;;;;;;5071740;28;20435;-82
2022/03/19 09:55:27;;;;;;;30.63;16.17;;;;;;;;;;5079880;28;21116;-79
2022/03/19 09:58:00;;;;;;;29.58;15.98;;;;;;;;;;5078287;28;20044;-79
2022/03/19 10:00:26;;;;;;;34.88;16.85;;;;;;;;;;5074667;28;20546;-79
2022/03/19 10:03:02;;;;;;;34.88;17.02;;;;;;;;;;5074548;28;20499;-81
2022/03/19 10:08:36;;;;;;;33.47;15.95;;;;;;;;;;5078203;28;20906;-81
2022/03/19 10:11:11;;;;;;;33.75;17.25;;;;;;;;;;5077923;28;20508;-80
2022/03/19 10:13:52;;;;;;;34.40;15.32;;;;;;;;;;5076965;28;20127;-80
2022/03/19 10:16:25;;;;;;;34.72;15.73;;;;;;;;;;5068369;28;20483;-80
2022/03/19 10:19:04;;;;;;;30.40;13.93;;;;;;;;;;5079401;27;20520;-80
2022/03/19 10:21:44;;;;;;;34.40;16.35;;;;;;;;;;5074904;27;20780;-85
2022/03/19 10:24:36;;;;;;;31.35;15.43;;;;;;;;;;5079786;28;20052;-81
2022/03/19 10:27:08;;;;;;;35.45;17.13;;;;;;;;;;5078278;27;20506;-81
2022/03/19 10:29:37;;;;;;;;;;;;;;;;;;5089696;27;20641;-80
2022/03/19 10:32:07;;;;;;;34.40;16.40;;;;;;;;;;5083450;27;19920;-80
2022/03/19 10:34:35;;;;;;;30.92;14.88;;;;;;;;;;5089792;27;20032;-80
2022/03/19 10:37:07;;;;;;;34.28;17.17;;;;;;;;;;5082286;27;20474;-80
2022/03/19 10:39:36;;;;;;;34.03;17.25;;;;;;;;;;5080470;27;20059;-80
2022/03/19 10:42:14;;;;;;;33.13;14.32;;;;;;;;;;5093667;27;20044;-80
2022/03/19 10:44:43;;;;;;;32.17;14.63;;;;;;;;;;5090533;27;20045;-81
2022/03/19 10:47:14;;;;;;;31.27;13.70;;;;;;;;;;5096830;27;20646;-81
2022/03/19 10:49:45;;;;;;;36.42;16.25;;;;;;;;;;5101571;27;20036;-80
2022/03/19 10:52:17;;;;;;;33.90;16.85;;;;;;;;;;5080236;28;20044;-80
2022/03/19 10:54:46;;;;;;;32.67;16.60;;;;;;;;;;5078130;28;20056;-81
2022/03/19 10:57:13;;;;;;;38.90;17.05;;;;;;;;;;5082246;28;20201;-81
2022/03/19 10:59:39;;;;;;;30.92;16.45;;;;;;;;;;5080504;28;20521;-80
2022/03/19 11:02:09;;;;;;;37.28;16.50;;;;;;;;;;5103274;27;20055;-80
2022/03/19 11:04:46;;;;;;;36.05;14.52;;;;;;;;;;5078742;28;20045;-80
2022/03/19 11:07:19;;;;;;;36.90;16.60;;;;;;;;;;5100979;27;20937;-80
2022/03/19 11:09:59;;;;;;;32.40;16.23;;;;;;;;;;5085629;27;20530;-80
2022/03/19 11:12:31;;;;;;;37.50;15.77;;;;;;;;;;5086044;28;20047;-79
2022/03/19 11:15:05;;;;;;;36.00;17.65;;;;;;;;;;5080662;28;20542;-80
2022/03/19 11:17:47;;;;;;;34.50;17.95;;;;;;;;;;5076488;28;20055;-79
2022/03/19 11:23:16;;;;;;;26.92;13.13;;;;;;;;;;5099095;27;20049;-80
2022/03/19 11:26:17;;;;;;;36.33;17.33;;;;;;;;;;5074013;27;20124;-83
2022/03/19 11:28:44;;;;;;;30.75;16.58;;;;;;;;;;5043130;27;20520;-80
2022/03/19 11:31:29;;;;;;;28.02;15.13;;;;;;;;;;5077923;27;20094;-83
2022/03/19 11:34:18;;;;;;;34.95;16.08;;;;;;;;;;5072030;27;20072;-77
2022/03/19 11:37:25;;;;;;;34.88;17.10;;;;;;;;;;5064701;27;20036;-82
2022/03/19 11:40:20;;;;;;;34.47;14.52;;;;;;;;;;5071504;28;20821;-77
2022/03/19 11:43:00;;;;;;;28.52;16.35;;;;;;;;;;5091651;27;20573;-77
2022/03/19 11:45:47;;;;;;;37.20;17.73;;;;;;;;;;5074485;27;20508;-84
2022/03/19 11:48:32;;;;;;;32.20;16.88;;;;;;;;;;5082741;27;20056;-79
2022/03/19 11:51:13;;;;;;;32.38;15.73;;;;;;;;;;5099930;27;20067;-78
2022/03/19 11:53:52;;;;;;;34.72;17.63;;;;;;;;;;5084857;27;20059;-78
2022/03/19 11:56:19;;;;;;;40.25;18.60;;;;;;;;;;5094079;27;20045;-77
2022/03/19 11:58:45;;;;;;;26.90;14.05;;;;;;;;;;5079294;28;20163;-79
2022/03/19 12:01:12;;;;;;;38.05;16.70;;;;;;;;;;5095790;27;20032;-80
2022/03/19 12:04:16;;;;;;;35.38;16.30;;;;;;;;;;5074167;28;20049;-81
2022/03/19 12:06:57;;;;;;;27.02;13.82;;;;;;;;;;4976268;28;20083;-79
2022/03/19 12:09:34;;;;;;;32.45;17.20;;;;;;;;;;4990048;28;20050;-79
2022/03/19 12:12:07;;;;;;;33.85;16.05;;;;;;;;;;5056830;27;20048;-80
2022/03/19 12:14:33;;;;;;;29.50;14.07;;;;;;;;;;5076928;28;20044;-80
2022/03/19 12:17:14;;;;;;;30.55;16.15;;;;;;;;;;5074244;28;20032;-79
2022/03/19 12:19:55;;;;;;;27.45;14.13;;;;;;;;;;5086925;27;20103;-80
2022/03/19 12:22:30;;;;;;;26.75;12.18;;;;;;;;;;5080737;27;20047;-79
2022/03/19 12:25:07;;;;;;;26.88;13.98;;;;;;;;;;5076432;28;20040;-80
2022/03/19 12:27:33;;;;;;;29.73;16.23;;;;;;;;;;5072430;28;20040;-79
2022/03/19 12:30:00;;;;;;;38.70;18.52;;;;;;;;;;5073546;27;20882;-78
2022/03/19 12:32:26;;;;;;;35.72;16.52;;;;;;;;;;5072235;28;20151;-79
2022/03/19 12:34:59;;;;;;;30.67;15.88;;;;;;;;;;5076466;27;20040;-79
2022/03/19 12:37:25;;;;;;;31.80;16.70;;;;;;;;;;5076670;28;20640;-79
2022/03/19 12:39:58;;;;;;;32.28;15.75;;;;;;;;;;5090515;27;20040;-79
2022/03/19 12:42:31;;;;;;;32.55;16.60;;;;;;;;;;5077957;28;20040;-80
2022/03/19 12:44:59;;;;;;;33.15;16.35;;;;;;;;;;5075419;28;20044;-75
2022/03/19 12:47:26;;;;;;;28.13;15.63;;;;;;;;;;5074988;27;20044;-75
2022/03/19 12:49:53;;;;;;;33.88;15.50;;;;;;;;;;5072060;28;20037;-79
2022/03/19 12:52:19;;;;;;;34.65;17.10;;;;;;;;;;5068964;28;20036;-79
2022/03/19 12:54:46;;;;;;;28.42;14.32;;;;;;;;;;5070661;28;20121;-76
2022/03/19 12:57:14;;;;;;;28.83;14.40;;;;;;;;;;5072283;28;20221;-78
2022/03/19 12:59:56;;;;;;;26.38;14.20;;;;;;;;;;5092832;27;20051;-79
2022/03/19 13:02:23;;;;;;;28.90;14.85;;;;;;;;;;5076012;27;20043;-78
2022/03/19 13:04:49;;;;;;;34.70;15.80;;;;;;;;;;5079049;27;20040;-77
2022/03/19 13:07:17;;;;;;;31.67;17.45;;;;;;;;;;5078396;27;20099;-78
2022/03/19 13:09:44;;;;;;;29.85;15.85;;;;;;;;;;5069918;27;20048;-78
2022/03/19 13:12:20;;;;;;;34.72;17.58;;;;;;;;;;5073567;27;20135;-78
2022/03/19 13:14:50;;;;;;;31.98;16.27;;;;;;;;;;5093557;27;20055;-78
2022/03/19 13:17:16;;;;;;;28.65;15.43;;;;;;;;;;5070856;27;20032;-78
2022/03/19 13:19:42;;;;;;;35.03;15.80;;;;;;;;;;5091529;27;20052;-78
2022/03/19 13:22:10;;;;;;;27.60;15.80;;;;;;;;;;5092096;27;20102;-78
2022/03/19 13:24:37;;;;;;;30.33;16.95;;;;;;;;;;5092024;27;20044;-78
2022/03/19 13:27:04;;;;;;;35.38;16.90;;;;;;;;;;5079483;27;20079;-77
2022/03/19 13:29:35;;;;;;;31.05;16.23;;;;;;;;;;5074919;27;20075;-78
2022/03/19 13:32:15;;;;;;;36.03;16.93;;;;;;;;;;5079420;28;20064;-78
2022/03/19 13:34:46;;;;;;;34.97;16.20;;;;;;;;;;5074930;27;20097;-78
2022/03/19 13:37:16;;;;;;;31.52;16.23;;;;;;;;;;5074073;28;20561;-80
2022/03/19 13:39:46;;;;;;;34.08;15.57;;;;;;;;;;5085394;27;20105;-79
2022/03/19 13:42:12;;;;;;;34.50;16.13;;;;;;;;;;5091421;27;20038;-79
2022/03/19 13:44:45;;;;;;;34.25;16.15;;;;;;;;;;5073077;27;20050;-80
2022/03/19 13:47:19;;;;;;;32.30;17.02;;;;;;;;;;5080730;28;20078;-78
2022/03/19 13:49:47;;;;;;;31.98;15.98;;;;;;;;;;5080050;28;20120;-77
2022/03/19 13:52:29;;;;;;;31.63;16.48;;;;;;;;;;5097969;27;20524;-81
2022/03/19 13:54:58;;;;;;;36.15;17.80;;;;;;;;;;5102385;27;20049;-81
2022/03/19 13:57:53;;;;;;;34.38;16.67;;;;;;;;;;5094561;28;20072;-80
2022/03/19 14:00:23;;;;;;;38.38;17.65;;;;;;;;;;5103460;27;20122;-80
2022/03/19 14:02:54;;;;;;;36.13;18.55;;;;;;;;;;5094064;28;20066;-80
2022/03/19 14:05:24;;;;;;;30.85;16.08;;;;;;;;;;5099669;28;20096;-80
2022/03/19 14:07:51;;;;;;;30.83;17.50;;;;;;;;;;5117486;27;21038;-78
2022/03/19 14:10:17;;;;;;;34.47;16.83;;;;;;;;;;5106058;28;20109;-80
2022/03/19 14:12:46;;;;;;;30.45;15.65;;;;;;;;;;5123167;27;20080;-82
2022/03/19 14:15:16;;;;;;;28.58;15.23;;;;;;;;;;5096731;28;20040;-80
2022/03/19 14:18:02;;;;;;;31.45;17.88;;;;;;;;;;5108430;28;20048;-80
2022/03/19 14:20:29;;;;;;;30.83;16.63;;;;;;;;;;5114710;27;20083;-80
2022/03/19 14:22:55;;;;;;;29.88;16.00;;;;;;;;;;5113816;27;20047;-79
2022/03/19 14:25:21;;;;;;;35.30;19.30;;;;;;;;;;5095580;27;20646;-79
2022/03/19 14:27:48;;;;;;;30.23;15.27;;;;;;;;;;5116689;27;20044;-79
2022/03/19 14:30:15;;;;;;;28.23;13.95;;;;;;;;;;5096441;27;20101;-79
2022/03/19 14:32:41;;;;;;;40.22;16.73;;;;;;;;;;5104318;27;20048;-77
2022/03/19 14:35:40;;;;;;;32.15;16.65;;;;;;;;;;5101190;27;20066;-81
2022/03/19 14:38:06;;;;;;;34.55;17.13;;;;;;;;;;5098678;28;20028;-76
2022/03/19 14:40:32;;;;;;;34.58;17.42;;;;;;;;;;5092917;28;20153;-80
2022/03/19 14:42:59;;;;;;;38.08;16.35;;;;;;;;;;5100617;28;20040;-79
2022/03/19 14:45:28;;;;;;;34.28;17.55;;;;;;;;;;5094029;27;20054;-80
2022/03/19 14:47:54;;;;;;;37.83;17.75;;;;;;;;;;5090452;27;20124;-79
2022/03/19 14:50:20;;;;;;;33.10;18.13;;;;;;;;;;5079670;27;20480;-79
2022/03/19 14:52:47;;;;;;;40.60;18.52;;;;;;;;;;5092292;27;20503;-79
2022/03/19 14:55:13;;;;;;;34.03;15.90;;;;;;;;;;5084210;28;20082;-80
2022/03/19 14:57:45;;;;;;;36.20;18.58;;;;;;;;;;5075876;28;20050;-80
2022/03/19 15:00:12;;;;;;;32.92;18.42;;;;;;;;;;5082605;28;20075;-80
2022/03/19 15:02:38;;;;;;;33.22;16.77;;;;;;;;;;5078863;27;20046;-80
2022/03/19 15:05:05;;;;;;;30.00;15.60;;;;;;;;;;5077112;28;20131;-79
2022/03/19 15:07:31;;;;;;;39.47;19.48;;;;;;;;;;5081327;28;20060;-79
2022/03/19 15:09:59;;;;;;;34.97;19.20;;;;;;;;;;5086160;28;20659;-79
2022/03/19 15:12:26;;;;;;;36.15;18.42;;;;;;;;;;5105346;27;20574;-79
2022/03/19 15:14:54;;;;;;;37.92;17.73;;;;;;;;;;5086950;27;20052;-80
2022/03/19 15:17:20;;;;;;;30.48;16.88;;;;;;;;;;5079814;28;20527;-80
2022/03/19 15:19:47;;;;;;;34.17;16.27;;;;;;;;;;5075978;28;20135;-81
2022/03/19 15:22:13;;;;;;;32.08;16.83;;;;;;;;;;5072582;28;20064;-83
2022/03/19 15:24:42;;;;;;;30.73;16.48;;;;;;;;;;5077375;28;20041;-79
2022/03/19 15:27:08;;;;;;;29.20;15.85;;;;;;;;;;5075445;28;20044;-80
2022/03/19 15:29:36;;;;;;;34.40;17.15;;;;;;;;;;5075260;28;20041;-80
2022/03/19 15:32:02;;;;;;;33.95;17.52;;;;;;;;;;5073193;28;20040;-80
2022/03/19 15:34:28;;;;;;;32.25;17.50;;;;;;;;;;5075930;28;20040;-81
2022/03/19 15:36:54;;;;;;;30.30;16.23;;;;;;;;;;5070650;28;20404;-80